createdAt,value
2023-05-09T00:00:07.050Z,60.15
2023-05-09T00:02:55.721Z,61.33
2023-05-09T00:05:25.407Z,61.73
2023-05-09T00:07:54.001Z,61.56
2023-05-09T00:10:21.963Z,64.40
2023-05-09T00:12:50.848Z,68.25
2023-05-09T00:15:23.915Z,58.34
2023-05-09T00:17:53.406Z,55.01
2023-05-09T00:20:23.709Z,55.26
2023-05-09T00:22:53.527Z,56.41
2023-05-09T00:25:22.081Z,56.83
2023-05-09T00:27:52.707Z,58.05
2023-05-09T00:30:22.236Z,59.79
2023-05-09T00:32:50.308Z,60.10
2023-05-09T00:35:20.425Z,61.50
2023-05-09T00:37:49.412Z,67.39
2023-05-09T00:40:17.789Z,68.41
2023-05-09T00:42:46.987Z,63.72
2023-05-09T00:45:15.648Z,57.00
2023-05-09T00:47:46.656Z,53.80
2023-05-09T00:50:16.199Z,54.85
2023-05-09T00:52:44.730Z,56.14
2023-05-09T00:55:14.067Z,57.86
2023-05-09T00:57:42.371Z,57.99
2023-05-09T01:00:13.331Z,59.23
2023-05-09T01:02:51.061Z,60.24
2023-05-09T01:05:22.907Z,61.29
2023-05-09T01:08:43.582Z,65.61
2023-05-09T01:11:31.710Z,64.43
2023-05-09T01:14:45.871Z,58.21
2023-05-09T01:17:39.312Z,55.04
2023-05-09T01:20:40.137Z,56.30
2023-05-09T01:23:44.808Z,58.62
2023-05-09T01:27:02.887Z,59.86
2023-05-09T01:29:38.097Z,60.52
2023-05-09T01:32:17.654Z,63.95
2023-05-09T01:34:56.221Z,65.68
2023-05-09T01:37:35.386Z,62.32
2023-05-09T01:40:18.581Z,56.19
2023-05-09T01:43:07.147Z,53.34
2023-05-09T01:45:39.141Z,54.95
2023-05-09T01:48:08.855Z,55.61
2023-05-09T01:50:40.077Z,57.18
2023-05-09T01:53:10.997Z,58.32
2023-05-09T01:55:42.744Z,60.15
2023-05-09T01:58:12.116Z,62.08
2023-05-09T02:00:41.026Z,64.24
2023-05-09T02:03:09.689Z,63.67
2023-05-09T02:05:39.538Z,60.40
2023-05-09T02:08:10.050Z,55.55
2023-05-09T02:10:39.629Z,55.58
2023-05-09T02:13:10.601Z,56.59
2023-05-09T02:15:40.256Z,58.24
2023-05-09T02:18:08.651Z,59.48
2023-05-09T02:20:37.273Z,61.05
2023-05-09T02:23:05.628Z,64.77
2023-05-09T02:25:34.618Z,68.94
2023-05-09T02:28:03.697Z,64.62
2023-05-09T02:30:39.090Z,59.21
2023-05-09T02:33:10.370Z,55.47
2023-05-09T02:35:44.057Z,55.31
2023-05-09T02:38:13.770Z,57.11
2023-05-09T02:40:45.048Z,59.13
2023-05-09T02:43:17.715Z,60.66
2023-05-09T02:45:46.248Z,64.62
2023-05-09T02:48:14.161Z,68.90
2023-05-09T02:50:43.568Z,65.98
2023-05-09T02:53:14.740Z,61.76
2023-05-09T02:55:42.549Z,56.13
2023-05-09T02:58:14.596Z,54.19
2023-05-09T03:00:43.583Z,55.68
2023-05-09T03:03:11.941Z,56.60
2023-05-09T03:05:39.833Z,57.33
2023-05-09T03:08:07.899Z,59.26
2023-05-09T03:10:38.233Z,59.67
2023-05-09T03:13:06.643Z,60.66
2023-05-09T03:15:34.604Z,67.58
2023-05-09T03:18:04.517Z,70.85
2023-05-09T03:20:32.947Z,65.83
2023-05-09T03:23:00.979Z,60.99
2023-05-09T03:25:30.027Z,55.53
2023-05-09T03:28:01.585Z,54.12
2023-05-09T03:30:31.831Z,55.20
2023-05-09T03:33:00.769Z,56.79
2023-05-09T03:35:28.768Z,57.92
2023-05-09T03:38:00.950Z,58.41
2023-05-09T03:40:28.843Z,59.47
2023-05-09T03:42:57.066Z,65.13
2023-05-09T03:45:25.001Z,69.38
2023-05-09T03:47:52.797Z,64.53
2023-05-09T03:50:23.458Z,60.85
2023-05-09T03:52:52.588Z,56.14
2023-05-09T03:55:21.171Z,54.45
2023-05-09T03:57:49.292Z,55.34
2023-05-09T04:00:19.213Z,56.26
2023-05-09T04:02:49.259Z,57.79
2023-05-09T04:05:18.702Z,58.74
2023-05-09T04:07:47.101Z,60.42
2023-05-09T04:10:15.602Z,64.28
2023-05-09T04:12:44.602Z,68.72
2023-05-09T04:15:12.936Z,66.29
2023-05-09T04:17:41.162Z,61.92
2023-05-09T04:20:11.467Z,56.74
2023-05-09T04:22:40.680Z,54.13
2023-05-09T04:25:14.969Z,55.28
2023-05-09T04:27:43.178Z,57.32
2023-05-09T04:30:12.138Z,58.48
2023-05-09T04:32:40.676Z,59.28
2023-05-09T04:35:09.382Z,65.10
2023-05-09T04:37:37.386Z,68.42
2023-05-09T04:40:07.560Z,64.45
2023-05-09T04:42:38.008Z,60.85
2023-05-09T04:45:08.428Z,56.77
2023-05-09T04:47:36.925Z,53.95
2023-05-09T04:50:13.656Z,54.86
2023-05-09T04:52:41.496Z,55.77
2023-05-09T04:55:12.022Z,58.29
2023-05-09T04:57:40.257Z,60.47
2023-05-09T05:00:11.975Z,61.40
2023-05-09T05:02:40.561Z,65.44
2023-05-09T05:05:12.185Z,68.68
2023-05-09T05:07:40.552Z,64.35
2023-05-09T05:10:09.399Z,61.91
2023-05-09T05:12:37.486Z,57.03
2023-05-09T05:15:06.166Z,53.59
2023-05-09T05:17:34.045Z,54.81
2023-05-09T05:20:02.061Z,57.10
2023-05-09T05:22:32.580Z,57.83
2023-05-09T05:25:03.667Z,58.95
2023-05-09T05:27:32.703Z,61.29
2023-05-09T05:30:00.854Z,66.52
2023-05-09T05:32:28.742Z,67.45
2023-05-09T05:34:57.430Z,65.63
2023-05-09T05:37:25.546Z,57.22
2023-05-09T05:39:55.344Z,53.63
2023-05-09T05:42:23.516Z,55.98
2023-05-09T05:44:51.903Z,58.12
2023-05-09T05:47:21.104Z,59.10
2023-05-09T05:49:49.545Z,61.36
2023-05-09T05:52:17.364Z,63.14
2023-05-09T05:54:45.986Z,63.47
2023-05-09T05:57:14.008Z,58.87
2023-05-09T05:59:41.819Z,55.63
2023-05-09T06:02:09.775Z,56.71
2023-05-09T06:04:37.584Z,59.41
2023-05-09T06:07:06.114Z,61.47
2023-05-09T06:09:35.439Z,63.15
2023-05-09T06:12:04.776Z,60.95
2023-05-09T06:14:32.892Z,56.75
2023-05-09T06:17:01.815Z,56.12
2023-05-09T06:19:30.030Z,57.54
2023-05-09T06:21:57.848Z,59.39
2023-05-09T06:24:35.625Z,60.19
2023-05-09T06:27:05.400Z,61.94
2023-05-09T06:29:34.995Z,63.91
2023-05-09T06:32:04.620Z,60.45
2023-05-09T06:34:32.789Z,57.86
2023-05-09T06:37:00.590Z,59.79
2023-05-09T06:39:28.632Z,61.34
2023-05-09T06:41:56.527Z,63.16
2023-05-09T06:44:25.047Z,60.77
2023-05-09T06:46:52.894Z,57.74
2023-05-09T06:49:21.448Z,59.44
2023-05-09T06:51:51.479Z,61.39
2023-05-09T06:54:21.767Z,62.81
2023-05-09T06:56:51.820Z,62.39
2023-05-09T06:59:19.803Z,59.65
2023-05-09T07:01:47.623Z,57.56
2023-05-09T07:04:15.731Z,59.12
2023-05-09T07:06:43.590Z,60.46
2023-05-09T07:09:11.519Z,62.66
2023-05-09T07:11:39.516Z,62.41
2023-05-09T07:14:07.535Z,62.53
2023-05-09T07:16:37.874Z,60.72
2023-05-09T07:19:06.146Z,55.98
2023-05-09T07:21:35.665Z,56.53
2023-05-09T07:24:05.022Z,58.35
2023-05-09T07:26:36.067Z,59.87
2023-05-09T07:29:04.147Z,60.92
2023-05-09T07:31:33.123Z,64.30
2023-05-09T07:34:02.731Z,63.54
2023-05-09T07:36:30.506Z,60.45
2023-05-09T07:38:58.355Z,54.19
2023-05-09T07:41:26.945Z,53.24
2023-05-09T07:43:54.645Z,55.63
2023-05-09T07:46:22.553Z,58.11
2023-05-09T07:48:50.558Z,60.28
2023-05-09T07:51:18.446Z,60.68
2023-05-09T07:53:46.605Z,62.08
2023-05-09T07:56:18.545Z,65.91
2023-05-09T07:58:49.514Z,63.58
2023-05-09T08:01:17.420Z,57.53
2023-05-09T08:03:45.461Z,52.94
2023-05-09T08:06:13.389Z,53.93
2023-05-09T08:08:41.243Z,56.14
2023-05-09T08:11:09.372Z,57.80
2023-05-09T08:13:44.764Z,59.56
2023-05-09T08:16:14.976Z,60.25
2023-05-09T08:18:43.956Z,61.55
2023-05-09T08:21:12.354Z,64.88
2023-05-09T08:23:41.454Z,61.70
2023-05-09T08:26:09.870Z,55.96
2023-05-09T08:28:37.733Z,55.03
2023-05-09T08:31:06.139Z,56.93
2023-05-09T08:33:34.295Z,58.61
2023-05-09T08:36:02.534Z,59.85
2023-05-09T08:38:30.646Z,60.19
2023-05-09T08:41:02.000Z,60.65
2023-05-09T08:43:33.524Z,61.05
2023-05-09T08:46:09.519Z,62.87
2023-05-09T08:48:40.608Z,65.17
2023-05-09T08:51:11.083Z,57.98
2023-05-09T08:53:39.482Z,53.04
2023-05-09T08:56:07.886Z,55.03
2023-05-09T08:58:38.891Z,56.89
2023-05-09T09:01:07.160Z,58.47
2023-05-09T09:03:38.486Z,58.87
2023-05-09T09:06:10.417Z,60.48
2023-05-09T09:08:42.436Z,61.49
2023-05-09T09:11:17.608Z,61.89
2023-05-09T09:13:47.672Z,62.88
2023-05-09T09:16:23.270Z,59.02
2023-05-09T09:18:56.812Z,54.24
2023-05-09T09:21:27.416Z,55.33
2023-05-09T09:23:56.774Z,56.83
2023-05-09T09:26:25.209Z,58.38
2023-05-09T09:28:54.520Z,59.28
2023-05-09T09:31:33.609Z,59.40
2023-05-09T09:34:03.406Z,60.36
2023-05-09T09:36:32.762Z,60.96
2023-05-09T09:39:06.952Z,60.99
2023-05-09T09:41:39.847Z,60.92
2023-05-09T09:44:22.689Z,61.43
2023-05-09T09:46:52.750Z,61.40
2023-05-09T09:49:26.745Z,61.68
2023-05-09T09:51:56.509Z,61.87
2023-05-09T09:54:28.751Z,61.98
2023-05-09T09:56:57.054Z,61.81
2023-05-09T09:59:27.486Z,62.11
2023-05-09T10:02:07.928Z,62.27
2023-05-09T10:04:39.435Z,62.41
2023-05-09T10:07:13.861Z,57.70
2023-05-09T10:09:44.010Z,56.15
2023-05-09T10:12:14.768Z,57.32
2023-05-09T10:14:44.179Z,58.35
2023-05-09T10:17:16.195Z,58.77
2023-05-09T10:19:47.922Z,59.30
2023-05-09T10:22:19.423Z,59.49
2023-05-09T10:25:14.130Z,59.36
2023-05-09T10:27:48.084Z,59.77
2023-05-09T10:30:23.496Z,59.41
2023-05-09T10:33:07.876Z,59.15
2023-05-09T10:35:47.667Z,58.87
2023-05-09T10:38:17.395Z,58.51
2023-05-09T10:40:48.381Z,58.61
2023-05-09T10:43:16.807Z,58.01
2023-05-09T10:45:45.761Z,57.95
2023-05-09T10:48:14.761Z,58.11
2023-05-09T10:50:43.726Z,58.43
2023-05-09T10:53:14.402Z,58.27
2023-05-09T10:56:02.123Z,57.84
2023-05-09T10:58:40.822Z,57.76
2023-05-09T11:01:08.732Z,57.60
2023-05-09T11:04:11.169Z,57.35
2023-05-09T11:06:54.580Z,56.84
2023-05-09T11:09:38.437Z,56.37
2023-05-09T11:12:09.748Z,56.29
2023-05-09T11:14:45.927Z,55.62
2023-05-09T11:17:32.238Z,55.37
2023-05-09T11:20:06.190Z,54.48
2023-05-09T11:22:41.459Z,53.30
2023-05-09T11:25:13.312Z,52.45
2023-05-09T11:27:48.694Z,52.68
2023-05-09T11:30:20.083Z,52.82
2023-05-09T11:32:55.877Z,52.02
2023-05-09T11:35:27.566Z,51.61
2023-05-09T11:38:06.098Z,50.26
2023-05-09T11:40:37.495Z,49.78
2023-05-09T11:43:09.447Z,49.05
2023-05-09T11:45:39.223Z,47.96
2023-05-09T11:48:10.776Z,47.28
2023-05-09T11:50:38.676Z,45.66
2023-05-09T11:53:12.801Z,44.53
2023-05-09T11:55:41.906Z,44.07
2023-05-09T11:58:09.973Z,44.95
2023-05-09T12:00:45.535Z,46.02
2023-05-09T12:03:14.399Z,46.40
2023-05-09T12:05:42.850Z,46.24
2023-05-09T12:08:10.754Z,46.56
2023-05-09T12:10:40.433Z,46.71
2023-05-09T12:13:12.127Z,47.08
2023-05-09T12:15:43.202Z,46.66
2023-05-09T12:18:11.276Z,46.34
2023-05-09T12:20:51.343Z,46.02
2023-05-09T12:23:20.865Z,45.67
2023-05-09T12:25:54.450Z,45.97
2023-05-09T12:28:27.522Z,46.15
2023-05-09T12:30:56.962Z,46.20
2023-05-09T12:33:26.073Z,45.70
2023-05-09T12:36:12.160Z,45.57
2023-05-09T12:38:53.930Z,45.50
2023-05-09T12:41:37.127Z,44.84
2023-05-09T12:44:10.479Z,44.70
2023-05-09T12:46:39.418Z,44.82
2023-05-09T12:49:21.846Z,45.12
2023-05-09T12:51:51.871Z,44.82
2023-05-09T12:54:29.174Z,44.75
2023-05-09T12:56:59.451Z,44.45
2023-05-09T12:59:33.408Z,44.43
2023-05-09T13:02:02.026Z,44.55
2023-05-09T13:04:30.019Z,44.53
2023-05-09T13:07:00.141Z,43.62
2023-05-09T13:09:28.198Z,42.58
2023-05-09T13:11:56.221Z,42.68
2023-05-09T13:14:24.514Z,42.13
2023-05-09T13:16:52.447Z,42.63
2023-05-09T13:19:21.877Z,43.45
2023-05-09T13:21:51.862Z,43.92
2023-05-09T13:24:22.200Z,43.43
2023-05-09T13:26:51.319Z,42.88
2023-05-09T13:29:20.109Z,43.11
2023-05-09T13:31:48.024Z,43.16
2023-05-09T13:34:15.966Z,42.30
2023-05-09T13:36:43.931Z,42.00
2023-05-09T13:39:12.024Z,41.75
2023-05-09T13:41:39.903Z,41.70
2023-05-09T13:44:08.476Z,41.97
2023-05-09T13:46:37.317Z,42.18
2023-05-09T13:49:05.965Z,42.16
2023-05-09T13:51:33.812Z,42.13
2023-05-09T13:54:02.884Z,42.24
2023-05-09T13:56:32.671Z,41.64
2023-05-09T13:59:00.623Z,41.67
2023-05-09T14:01:30.113Z,41.71
2023-05-09T14:04:00.941Z,42.01
2023-05-09T14:06:30.475Z,42.03
2023-05-09T14:08:58.411Z,41.82
2023-05-09T14:11:29.002Z,42.03
2023-05-09T14:14:02.018Z,41.68
2023-05-09T14:16:32.515Z,41.81
2023-05-09T14:19:00.753Z,41.75
2023-05-09T14:21:29.052Z,41.56
2023-05-09T14:23:57.641Z,42.02
2023-05-09T14:26:27.019Z,42.01
2023-05-09T14:28:56.499Z,42.17
2023-05-09T14:31:24.639Z,41.84
2023-05-09T14:33:53.547Z,41.88
2023-05-09T14:36:21.590Z,42.10
2023-05-09T14:38:49.423Z,41.79
2023-05-09T14:41:18.645Z,41.85
2023-05-09T14:43:48.829Z,41.93
2023-05-09T14:46:17.469Z,41.91
2023-05-09T14:48:46.938Z,41.71
2023-05-09T14:51:14.769Z,41.96
2023-05-09T14:53:43.288Z,42.43
2023-05-09T14:56:11.777Z,42.63
2023-05-09T14:58:39.952Z,42.66
2023-05-09T15:01:07.813Z,42.84
2023-05-09T15:03:36.188Z,42.65
2023-05-09T15:06:04.978Z,42.82
2023-05-09T15:08:35.947Z,42.87
2023-05-09T15:11:03.942Z,43.18
2023-05-09T15:13:31.930Z,43.39
2023-05-09T15:16:00.759Z,43.06
2023-05-09T15:18:28.844Z,42.59
2023-05-09T15:20:59.265Z,42.37
2023-05-09T15:23:27.703Z,42.55
2023-05-09T15:25:56.139Z,42.36
2023-05-09T15:28:25.809Z,42.31
2023-05-09T15:30:55.696Z,42.26
2023-05-09T15:33:23.791Z,41.97
2023-05-09T15:35:58.647Z,41.71
2023-05-09T15:38:28.594Z,41.79
2023-05-09T15:40:57.198Z,42.01
2023-05-09T15:43:25.288Z,42.27
2023-05-09T15:45:53.203Z,41.97
2023-05-09T15:48:21.989Z,41.65
2023-05-09T15:50:49.871Z,41.92
2023-05-09T15:53:17.903Z,42.15
2023-05-09T15:55:46.553Z,41.65
2023-05-09T15:58:16.529Z,41.57
2023-05-09T16:00:45.575Z,41.78
2023-05-09T16:03:15.600Z,42.05
2023-05-09T16:05:43.977Z,42.13
2023-05-09T16:08:12.899Z,41.87
2023-05-09T16:10:43.591Z,41.98
2023-05-09T16:13:11.879Z,41.79
2023-05-09T16:15:40.935Z,41.96
2023-05-09T16:18:10.481Z,42.32
2023-05-09T16:20:38.404Z,42.49
2023-05-09T16:23:08.127Z,42.32
2023-05-09T16:25:45.455Z,42.13
2023-05-09T16:28:13.583Z,42.12
2023-05-09T16:30:42.154Z,41.86
2023-05-09T16:33:10.758Z,41.61
2023-05-09T16:35:40.293Z,41.09
2023-05-09T16:38:08.162Z,41.36
2023-05-09T16:40:37.086Z,41.32
2023-05-09T16:43:07.119Z,41.08
2023-05-09T16:45:35.090Z,41.05
2023-05-09T16:48:03.074Z,41.20
2023-05-09T16:50:30.951Z,41.41
2023-05-09T16:52:58.738Z,41.45
2023-05-09T16:55:28.819Z,41.01
2023-05-09T16:57:56.664Z,40.73
2023-05-09T17:00:24.716Z,40.76
2023-05-09T17:02:53.368Z,40.61
2023-05-09T17:05:21.502Z,40.01
2023-05-09T17:07:50.614Z,39.61
2023-05-09T17:10:21.564Z,39.94
2023-05-09T17:12:50.815Z,40.07
2023-05-09T17:15:19.293Z,39.42
2023-05-09T17:17:50.287Z,39.35
2023-05-09T17:20:25.733Z,39.74
2023-05-09T17:22:53.655Z,39.92
2023-05-09T17:25:21.593Z,39.88
2023-05-09T17:27:49.474Z,39.96
2023-05-09T17:30:20.591Z,40.56
2023-05-09T17:32:50.335Z,40.66
2023-05-09T17:35:20.854Z,40.63
2023-05-09T17:37:49.266Z,40.76
2023-05-09T17:40:17.996Z,40.59
2023-05-09T17:42:46.015Z,40.57
2023-05-09T17:45:14.359Z,40.28
2023-05-09T17:47:43.325Z,39.84
2023-05-09T17:50:17.312Z,39.80
2023-05-09T17:52:47.589Z,40.00
2023-05-09T17:55:18.094Z,39.81
2023-05-09T17:57:47.314Z,39.74
2023-05-09T18:00:16.796Z,39.95
2023-05-09T18:02:46.420Z,40.30
2023-05-09T18:05:14.346Z,40.55
2023-05-09T18:07:42.623Z,40.63
2023-05-09T18:10:11.393Z,40.88
2023-05-09T18:12:39.380Z,41.08
2023-05-09T18:15:08.277Z,41.29
2023-05-09T18:17:37.978Z,41.45
2023-05-09T18:20:12.187Z,41.46
2023-05-09T18:22:40.418Z,41.61
2023-05-09T18:25:10.426Z,41.72
2023-05-09T18:27:40.771Z,41.82
2023-05-09T18:30:09.706Z,41.73
2023-05-09T18:32:38.054Z,41.76
2023-05-09T18:35:10.443Z,41.89
2023-05-09T18:37:38.806Z,42.13
2023-05-09T18:40:10.757Z,42.34
2023-05-09T18:42:38.698Z,42.50
2023-05-09T18:45:08.789Z,42.52
2023-05-09T18:47:40.999Z,42.32
2023-05-09T18:50:10.156Z,42.40
2023-05-09T18:52:38.785Z,42.28
2023-05-09T18:55:07.220Z,42.67
2023-05-09T18:57:35.071Z,42.00
2023-05-09T19:00:03.628Z,42.21
2023-05-09T19:02:33.116Z,42.17
2023-05-09T19:05:06.647Z,41.94
2023-05-09T19:07:40.516Z,42.24
2023-05-09T19:10:08.926Z,42.34
2023-05-09T19:12:37.600Z,42.72
2023-05-09T19:15:06.980Z,43.01
2023-05-09T19:17:35.087Z,43.11
2023-05-09T19:20:04.010Z,43.20
2023-05-09T19:22:32.853Z,43.26
2023-05-09T19:25:01.160Z,43.39
2023-05-09T19:27:29.580Z,43.68
2023-05-09T19:29:57.622Z,43.90
2023-05-09T19:32:25.907Z,44.04
2023-05-09T19:34:53.809Z,44.12
2023-05-09T19:37:21.699Z,44.29
2023-05-09T19:39:50.430Z,44.63
2023-05-09T19:42:19.603Z,44.73
2023-05-09T19:44:47.773Z,45.21
2023-05-09T19:47:16.976Z,45.25
2023-05-09T19:49:45.188Z,45.20
2023-05-09T19:52:15.974Z,45.37
2023-05-09T19:54:44.235Z,45.61
2023-05-09T19:57:13.272Z,45.72
2023-05-09T19:59:41.930Z,45.87
2023-05-09T20:02:11.364Z,45.95
2023-05-09T20:04:39.733Z,46.04
2023-05-09T20:07:08.135Z,46.26
2023-05-09T20:09:36.140Z,45.99
2023-05-09T20:12:04.402Z,46.25
2023-05-09T20:14:32.716Z,46.29
2023-05-09T20:17:00.717Z,46.62
2023-05-09T20:19:28.627Z,46.78
2023-05-09T20:21:57.446Z,46.77
2023-05-09T20:24:26.823Z,47.04
2023-05-09T20:26:55.321Z,47.27
2023-05-09T20:29:25.240Z,47.67
2023-05-09T20:31:53.288Z,47.62
2023-05-09T20:34:22.974Z,47.79
2023-05-09T20:36:53.887Z,48.01
2023-05-09T20:39:23.278Z,48.22
2023-05-09T20:41:55.863Z,48.37
2023-05-09T20:44:25.081Z,48.30
2023-05-09T20:46:53.577Z,48.36
2023-05-09T20:49:24.594Z,48.65
2023-05-09T20:51:55.445Z,49.00
2023-05-09T20:54:24.178Z,49.58
2023-05-09T20:56:56.100Z,49.38
2023-05-09T20:59:25.094Z,49.31
2023-05-09T21:01:56.369Z,49.34
2023-05-09T21:04:25.308Z,49.44
2023-05-09T21:06:54.075Z,49.95
2023-05-09T21:09:24.415Z,50.21
2023-05-09T21:11:53.665Z,50.86
2023-05-09T21:14:21.498Z,51.36
2023-05-09T21:16:55.287Z,51.65
2023-05-09T21:19:23.443Z,51.62
2023-05-09T21:21:56.250Z,51.46
2023-05-09T21:24:24.343Z,51.72
2023-05-09T21:26:52.515Z,52.77
2023-05-09T21:29:20.799Z,52.72
2023-05-09T21:31:48.859Z,53.77
2023-05-09T21:34:17.624Z,53.94
2023-05-09T21:36:46.001Z,54.60
2023-05-09T21:39:14.786Z,54.02
2023-05-09T21:41:43.350Z,54.34
2023-05-09T21:44:15.366Z,54.96
2023-05-09T21:46:46.637Z,55.85
2023-05-09T21:49:17.036Z,55.90
2023-05-09T21:51:44.979Z,55.89
2023-05-09T21:54:13.517Z,56.14
2023-05-09T21:56:42.819Z,56.36
2023-05-09T21:59:11.221Z,56.64
2023-05-09T22:01:39.165Z,56.52
2023-05-09T22:04:08.539Z,56.85
2023-05-09T22:06:39.234Z,56.59
2023-05-09T22:09:10.482Z,57.56
2023-05-09T22:11:38.550Z,57.38
2023-05-09T22:14:07.981Z,56.61
2023-05-09T22:16:40.006Z,57.40
2023-05-09T22:19:10.711Z,58.29
2023-05-09T22:21:38.650Z,57.68
2023-05-09T22:24:07.726Z,57.28
2023-05-09T22:26:35.786Z,58.21
2023-05-09T22:29:04.730Z,58.30
2023-05-09T22:31:33.124Z,58.17
2023-05-09T22:34:01.052Z,59.52
2023-05-09T22:36:30.370Z,59.26
2023-05-09T22:39:00.620Z,59.66
2023-05-09T22:41:28.718Z,60.05
2023-05-09T22:43:57.759Z,59.57
2023-05-09T22:46:25.702Z,59.20
2023-05-09T22:48:53.915Z,59.90
2023-05-09T22:51:22.929Z,60.16
2023-05-09T22:53:52.949Z,61.02
2023-05-09T22:56:20.867Z,61.02
2023-05-09T22:58:48.786Z,60.82
2023-05-09T23:01:16.669Z,61.37
2023-05-09T23:03:45.193Z,60.28
2023-05-09T23:06:13.756Z,60.34
2023-05-09T23:08:41.611Z,60.06
2023-05-09T23:11:11.986Z,61.85
2023-05-09T23:13:39.879Z,60.85
2023-05-09T23:16:07.779Z,60.82
2023-05-09T23:18:37.722Z,61.42
2023-05-09T23:21:05.878Z,61.51
2023-05-09T23:23:34.624Z,69.47
2023-05-09T23:26:02.536Z,71.34
2023-05-09T23:28:32.570Z,63.30
2023-05-09T23:31:00.446Z,53.83
2023-05-09T23:33:29.106Z,51.58
2023-05-09T23:35:57.427Z,52.04
2023-05-09T23:38:25.850Z,53.29
2023-05-09T23:40:58.110Z,54.46
2023-05-09T23:43:26.062Z,55.44
2023-05-09T23:45:58.079Z,56.13
2023-05-09T23:48:26.571Z,57.20
2023-05-09T23:50:54.354Z,57.46
2023-05-09T23:53:22.433Z,57.41
2023-05-09T23:55:51.243Z,57.89
2023-05-09T23:58:19.689Z,58.90
